createdAt,value
2022-08-24T00:00:21.649Z,3.20
2022-08-24T00:01:21.800Z,3.30
2022-08-24T00:02:22.169Z,3.50
2022-08-24T00:03:22.366Z,3.50
2022-08-24T00:04:22.351Z,3.30
2022-08-24T00:05:22.517Z,3.20
2022-08-24T00:06:22.684Z,3.00
2022-08-24T00:07:27.048Z,3.30
2022-08-24T00:08:24.052Z,3.60
2022-08-24T00:09:23.202Z,3.30
2022-08-24T00:10:23.363Z,3.40
2022-08-24T00:11:23.518Z,3.00
2022-08-24T00:12:23.704Z,3.60
2022-08-24T00:13:23.876Z,3.30
2022-08-24T00:14:24.044Z,3.40
2022-08-24T00:15:24.205Z,3.20
2022-08-24T00:16:24.408Z,3.00
2022-08-24T00:17:24.568Z,3.10
2022-08-24T00:18:24.743Z,3.60
2022-08-24T00:19:24.903Z,3.40
2022-08-24T00:20:25.056Z,3.20
2022-08-24T00:21:25.227Z,3.20
2022-08-24T00:22:25.396Z,3.00
2022-08-24T00:23:25.557Z,3.10
2022-08-24T00:24:25.716Z,3.20
2022-08-24T00:25:25.869Z,3.10
2022-08-24T00:26:29.233Z,3.20
2022-08-24T00:27:26.250Z,3.40
2022-08-24T00:28:26.443Z,3.20
2022-08-24T00:29:26.597Z,3.40
2022-08-24T00:30:26.751Z,3.10
2022-08-24T00:31:27.001Z,3.20
2022-08-24T00:32:27.111Z,3.00
2022-08-24T00:33:27.302Z,3.50
2022-08-24T00:34:27.491Z,3.50
2022-08-24T00:35:27.641Z,3.30
2022-08-24T00:36:27.862Z,3.00
2022-08-24T00:37:28.002Z,3.10
2022-08-24T00:38:29.748Z,3.20
2022-08-24T00:39:28.383Z,3.30
2022-08-24T00:40:28.606Z,3.40
2022-08-24T00:41:28.724Z,3.10
2022-08-24T00:42:28.884Z,3.20
2022-08-24T00:43:29.048Z,3.20
2022-08-24T00:44:29.205Z,3.50
2022-08-24T00:45:29.416Z,3.20
2022-08-24T00:46:29.566Z,3.30
2022-08-24T00:47:29.724Z,2.90
2022-08-24T00:48:29.920Z,3.20
2022-08-24T00:49:30.075Z,3.20
2022-08-24T00:50:30.237Z,3.10
2022-08-24T00:51:30.408Z,3.30
2022-08-24T00:52:30.568Z,3.20
2022-08-24T00:53:30.730Z,2.90
2022-08-24T00:54:30.891Z,2.90
2022-08-24T00:55:31.044Z,3.20
2022-08-24T00:56:31.251Z,3.10
2022-08-24T00:57:31.411Z,3.30
2022-08-24T00:58:31.565Z,3.00
2022-08-24T00:59:32.666Z,3.40
2022-08-24T01:00:31.943Z,3.50
2022-08-24T01:01:32.218Z,3.20
2022-08-24T01:02:32.378Z,3.10
2022-08-24T01:03:32.493Z,3.30
2022-08-24T01:04:32.652Z,3.40
2022-08-24T01:05:32.825Z,3.00
2022-08-24T01:06:33.062Z,3.20
2022-08-24T01:07:33.270Z,3.10
2022-08-24T01:08:33.357Z,3.30
2022-08-24T01:09:33.520Z,3.30
2022-08-24T01:10:33.678Z,3.10
2022-08-24T01:11:34.129Z,3.30
2022-08-24T01:12:34.010Z,3.20
2022-08-24T01:13:34.168Z,3.20
2022-08-24T01:14:34.347Z,3.00
2022-08-24T01:15:34.502Z,2.90
2022-08-24T01:16:34.777Z,3.20
2022-08-24T01:17:39.076Z,3.30
2022-08-24T01:18:36.051Z,3.30
2022-08-24T01:19:35.229Z,3.20
2022-08-24T01:20:35.429Z,3.40
2022-08-24T01:21:35.611Z,2.90
2022-08-24T01:22:35.775Z,3.00
2022-08-24T01:23:36.339Z,3.20
2022-08-24T01:24:36.101Z,3.20
2022-08-24T01:25:36.252Z,3.30
2022-08-24T01:26:36.466Z,3.20
2022-08-24T01:27:36.611Z,3.40
2022-08-24T01:28:37.086Z,3.50
2022-08-24T01:29:36.980Z,3.10
2022-08-24T01:30:37.161Z,3.10
2022-08-24T01:31:37.377Z,3.50
2022-08-24T01:32:37.514Z,3.20
2022-08-24T01:33:37.674Z,3.30
2022-08-24T01:34:37.856Z,3.20
2022-08-24T01:35:38.018Z,3.10
2022-08-24T01:36:38.183Z,3.00
2022-08-24T01:37:38.363Z,2.80
2022-08-24T01:38:38.562Z,3.20
2022-08-24T01:39:38.735Z,3.30
2022-08-24T01:40:38.886Z,3.30
2022-08-24T01:41:39.047Z,3.00
2022-08-24T01:42:39.228Z,3.10
2022-08-24T01:43:39.437Z,3.10
2022-08-24T01:44:39.597Z,3.10
2022-08-24T01:45:39.749Z,2.90
2022-08-24T01:46:39.989Z,3.50
2022-08-24T01:47:40.129Z,3.00
2022-08-24T01:48:40.349Z,3.00
2022-08-24T01:49:40.499Z,3.30
2022-08-24T01:50:40.690Z,3.00
2022-08-24T01:51:40.871Z,3.40
2022-08-24T01:53:03.763Z,3.20
2022-08-24T01:53:42.252Z,3.30
2022-08-24T01:54:43.571Z,3.10
2022-08-24T01:55:41.611Z,3.20
2022-08-24T01:56:41.811Z,3.00
2022-08-24T01:57:42.003Z,3.40
2022-08-24T01:58:42.163Z,3.30
2022-08-24T01:59:42.330Z,3.10
2022-08-24T02:00:42.485Z,3.10
2022-08-24T02:01:42.738Z,3.10
2022-08-24T02:02:42.905Z,3.10
2022-08-24T02:03:42.994Z,3.30
2022-08-24T02:04:44.286Z,3.20
2022-08-24T02:05:43.355Z,2.80
2022-08-24T02:06:43.546Z,3.10
2022-08-24T02:07:43.716Z,2.90
2022-08-24T02:08:43.877Z,3.00
2022-08-24T02:09:44.031Z,3.10
2022-08-24T02:10:45.899Z,3.40
2022-08-24T02:11:45.418Z,3.50
2022-08-24T02:12:44.589Z,3.20
2022-08-24T02:13:44.751Z,3.20
2022-08-24T02:14:44.930Z,3.10
2022-08-24T02:15:45.108Z,3.10
2022-08-24T02:16:45.260Z,3.00
2022-08-24T02:17:45.411Z,2.70
2022-08-24T02:18:45.612Z,3.40
2022-08-24T02:19:45.761Z,3.10
2022-08-24T02:20:45.970Z,3.00
2022-08-24T02:21:46.142Z,3.10
2022-08-24T02:22:46.300Z,3.30
2022-08-24T02:23:46.492Z,3.10
2022-08-24T02:24:46.653Z,2.90
2022-08-24T02:25:46.843Z,3.00
2022-08-24T02:26:47.045Z,3.20
2022-08-24T02:27:47.208Z,2.90
2022-08-24T02:28:47.363Z,3.00
2022-08-24T02:29:47.553Z,3.00
2022-08-24T02:30:47.753Z,2.90
2022-08-24T02:31:47.936Z,3.10
2022-08-24T02:32:48.095Z,3.00
2022-08-24T02:33:48.286Z,2.90
2022-08-24T02:34:48.448Z,2.90
2022-08-24T02:35:48.628Z,2.90
2022-08-24T02:36:48.787Z,2.90
2022-08-24T02:37:48.978Z,2.80
2022-08-24T02:38:49.135Z,3.10
2022-08-24T02:39:49.398Z,2.90
2022-08-24T02:40:49.509Z,2.90
2022-08-24T02:41:49.670Z,3.10
2022-08-24T02:42:49.831Z,3.10
2022-08-24T02:43:49.991Z,2.80
2022-08-24T02:44:50.160Z,3.00
2022-08-24T02:45:50.673Z,2.90
2022-08-24T02:46:50.504Z,2.90
2022-08-24T02:47:50.652Z,2.80
2022-08-24T02:48:57.570Z,2.70
2022-08-24T02:49:52.020Z,3.30
2022-08-24T02:50:51.160Z,3.20
2022-08-24T02:51:51.315Z,3.50
2022-08-24T02:52:51.473Z,3.10
2022-08-24T02:53:51.654Z,3.60
2022-08-24T02:54:51.810Z,3.20
2022-08-24T02:55:52.004Z,2.90
2022-08-24T02:56:52.157Z,3.00
2022-08-24T02:57:52.349Z,2.90
2022-08-24T02:58:54.302Z,3.10
2022-08-24T02:59:52.677Z,3.00
2022-08-24T03:00:52.835Z,3.00
2022-08-24T03:01:53.096Z,3.20
2022-08-24T03:02:53.226Z,2.90
2022-08-24T03:03:53.398Z,3.10
2022-08-24T03:04:53.558Z,3.00
2022-08-24T03:05:53.718Z,3.10
2022-08-24T03:06:53.891Z,3.20
2022-08-24T03:07:54.061Z,3.10
2022-08-24T03:08:56.089Z,3.40
2022-08-24T03:09:54.378Z,3.00
2022-08-24T03:10:54.536Z,3.20
2022-08-24T03:11:54.698Z,3.10
2022-08-24T03:12:58.779Z,3.00
2022-08-24T03:13:55.021Z,2.80
2022-08-24T03:14:55.221Z,3.30
2022-08-24T03:15:55.424Z,3.00
2022-08-24T03:16:55.592Z,3.20
2022-08-24T03:17:55.713Z,3.00
2022-08-24T03:18:55.863Z,3.40
2022-08-24T03:19:56.080Z,3.60
2022-08-24T03:20:56.223Z,3.20
2022-08-24T03:21:56.419Z,3.10
2022-08-24T03:22:56.576Z,3.20
2022-08-24T03:23:56.765Z,3.10
2022-08-24T03:24:56.937Z,3.10
2022-08-24T03:25:57.096Z,3.10
2022-08-24T03:26:57.266Z,3.10
2022-08-24T03:27:57.418Z,3.70
2022-08-24T03:28:57.599Z,3.10
2022-08-24T03:29:57.754Z,3.60
2022-08-24T03:30:57.993Z,3.40
2022-08-24T03:31:58.093Z,3.10
2022-08-24T03:32:58.274Z,3.10
2022-08-24T03:33:58.437Z,3.10
2022-08-24T03:34:58.589Z,3.10
2022-08-24T03:35:58.755Z,3.40
2022-08-24T03:36:58.920Z,3.80
2022-08-24T03:37:59.080Z,3.50
2022-08-24T03:38:59.253Z,3.30
2022-08-24T03:39:59.440Z,3.30
2022-08-24T03:40:59.572Z,3.40
2022-08-24T03:41:59.731Z,3.20
2022-08-24T03:42:59.959Z,3.20
2022-08-24T03:44:00.092Z,3.50
2022-08-24T03:45:00.220Z,3.30
2022-08-24T03:46:00.454Z,3.20
2022-08-24T03:47:00.570Z,3.20
2022-08-24T03:48:00.742Z,3.20
2022-08-24T03:49:00.914Z,3.30
2022-08-24T03:50:01.079Z,3.10
2022-08-24T03:51:01.239Z,3.20
2022-08-24T03:52:01.397Z,2.90
2022-08-24T03:53:01.686Z,3.40
2022-08-24T03:54:01.737Z,3.30
2022-08-24T03:55:01.896Z,3.10
2022-08-24T03:56:06.978Z,3.30
2022-08-24T03:57:03.237Z,3.50
2022-08-24T03:58:02.438Z,3.30
2022-08-24T03:59:02.608Z,3.40
2022-08-24T04:00:02.768Z,3.40
2022-08-24T04:01:03.034Z,3.50
2022-08-24T04:02:03.139Z,3.40
2022-08-24T04:03:03.431Z,3.30
2022-08-24T04:04:03.481Z,3.40
2022-08-24T04:05:03.640Z,3.40
2022-08-24T04:06:03.800Z,3.20
2022-08-24T04:07:03.980Z,3.30
2022-08-24T04:08:04.153Z,3.00
2022-08-24T04:09:04.313Z,3.20
2022-08-24T04:10:04.465Z,3.30
2022-08-24T04:11:04.622Z,3.90
2022-08-24T04:12:04.824Z,3.50
2022-08-24T04:13:05.218Z,4.00
2022-08-24T04:14:05.169Z,4.00
2022-08-24T04:15:05.321Z,3.40
2022-08-24T04:16:05.578Z,3.30
2022-08-24T04:17:05.693Z,3.30
2022-08-24T04:18:05.858Z,3.80
2022-08-24T04:19:06.024Z,3.80
2022-08-24T04:20:06.186Z,3.90
2022-08-24T04:21:06.357Z,3.80
2022-08-24T04:22:06.555Z,4.10
2022-08-24T04:23:06.698Z,3.80
2022-08-24T04:24:06.876Z,3.80
2022-08-24T04:25:08.961Z,4.10
2022-08-24T04:26:07.215Z,4.10
2022-08-24T04:27:07.389Z,4.40
2022-08-24T04:28:07.577Z,4.20
2022-08-24T04:29:08.232Z,5.00
2022-08-24T04:30:07.949Z,4.20
2022-08-24T04:31:08.111Z,4.50
2022-08-24T04:32:08.312Z,4.90
2022-08-24T04:33:08.443Z,4.10
2022-08-24T04:34:08.628Z,4.70
2022-08-24T04:35:08.791Z,4.30
2022-08-24T04:36:08.982Z,4.90
2022-08-24T04:37:11.423Z,4.70
2022-08-24T04:38:09.301Z,5.10
2022-08-24T04:39:09.474Z,4.90
2022-08-24T04:40:09.702Z,4.90
2022-08-24T04:41:09.777Z,4.80
2022-08-24T04:42:09.967Z,4.80
2022-08-24T04:43:10.124Z,4.90
2022-08-24T04:44:10.317Z,5.40
2022-08-24T04:45:10.467Z,5.30
2022-08-24T04:46:10.696Z,5.00
2022-08-24T04:47:10.845Z,5.10
2022-08-24T04:48:11.048Z,5.60
2022-08-24T04:49:11.196Z,4.90
2022-08-24T04:50:11.388Z,5.10
2022-08-24T04:51:14.073Z,4.90
2022-08-24T04:52:11.733Z,5.10
2022-08-24T04:53:11.918Z,5.10
2022-08-24T04:54:12.101Z,5.30
2022-08-24T04:55:12.252Z,5.00
2022-08-24T04:56:12.430Z,4.90
2022-08-24T04:57:17.402Z,5.80
2022-08-24T04:58:13.780Z,5.70
2022-08-24T04:59:12.950Z,5.30
2022-08-24T05:00:13.149Z,5.60
2022-08-24T05:01:13.360Z,5.20
2022-08-24T05:02:13.523Z,6.00
2022-08-24T05:03:13.643Z,5.20
2022-08-24T05:04:13.786Z,5.40
2022-08-24T05:05:13.969Z,5.40
2022-08-24T05:06:14.153Z,5.30
2022-08-24T05:07:14.313Z,5.20
2022-08-24T05:08:14.534Z,5.70
2022-08-24T05:09:14.687Z,5.90
2022-08-24T05:10:14.825Z,5.80
2022-08-24T05:11:14.984Z,5.40
2022-08-24T05:12:15.176Z,5.90
2022-08-24T05:13:15.343Z,5.50
2022-08-24T05:14:15.496Z,6.10
2022-08-24T05:15:15.646Z,5.80
2022-08-24T05:16:15.939Z,5.80
2022-08-24T05:17:16.017Z,5.60
2022-08-24T05:18:16.168Z,5.60
2022-08-24T05:19:16.351Z,6.60
2022-08-24T05:20:16.542Z,6.40
2022-08-24T05:21:16.718Z,6.00
2022-08-24T05:22:16.913Z,6.50
2022-08-24T05:23:17.073Z,5.30
2022-08-24T05:24:17.260Z,4.80
2022-08-24T05:25:17.411Z,5.50
2022-08-24T05:26:17.606Z,5.60
2022-08-24T05:27:19.013Z,5.40
2022-08-24T05:28:17.962Z,6.00
2022-08-24T05:29:18.124Z,6.10
2022-08-24T05:30:18.303Z,6.10
2022-08-24T05:31:18.526Z,5.60
2022-08-24T05:32:18.675Z,6.20
2022-08-24T05:33:18.833Z,5.90
2022-08-24T05:34:19.014Z,5.90
2022-08-24T05:35:19.184Z,6.20
2022-08-24T05:36:19.355Z,6.10
2022-08-24T05:37:19.545Z,6.40
2022-08-24T05:38:19.715Z,5.90
2022-08-24T05:39:19.876Z,6.60
2022-08-24T05:40:20.180Z,5.60
2022-08-24T05:41:20.231Z,6.30
2022-08-24T05:42:20.420Z,6.10
2022-08-24T05:43:20.578Z,6.50
2022-08-24T05:44:20.767Z,5.90
2022-08-24T05:45:20.949Z,6.20
2022-08-24T05:46:21.159Z,6.60
2022-08-24T05:47:21.272Z,6.20
2022-08-24T05:48:21.461Z,6.60
2022-08-24T05:49:21.649Z,6.50
2022-08-24T05:50:21.839Z,6.30
2022-08-24T05:51:21.985Z,6.40
2022-08-24T05:52:22.150Z,6.60
2022-08-24T05:53:22.342Z,6.60
2022-08-24T05:54:22.536Z,7.30
2022-08-24T05:55:22.732Z,6.40
2022-08-24T05:56:22.918Z,6.80
2022-08-24T05:57:23.063Z,6.80
2022-08-24T05:58:30.959Z,6.60
2022-08-24T05:59:24.443Z,6.60
2022-08-24T06:00:23.595Z,6.80
2022-08-24T06:01:23.841Z,7.50
2022-08-24T06:02:24.098Z,6.40
2022-08-24T06:03:24.125Z,6.40
2022-08-24T06:04:24.325Z,6.50
2022-08-24T06:05:24.486Z,6.70
2022-08-24T06:06:24.675Z,6.70
2022-08-24T06:07:24.856Z,6.80
2022-08-24T06:08:25.063Z,6.80
2022-08-24T06:09:25.204Z,6.80
2022-08-24T06:10:40.478Z,7.10
2022-08-24T06:11:30.570Z,6.50
2022-08-24T06:12:25.748Z,6.60
2022-08-24T06:13:25.908Z,6.50
2022-08-24T06:14:27.161Z,6.70
2022-08-24T06:15:26.260Z,6.90
2022-08-24T06:16:26.463Z,6.60
2022-08-24T06:17:26.719Z,6.00
2022-08-24T06:18:26.824Z,6.50
2022-08-24T06:19:26.980Z,6.90
2022-08-24T06:20:27.258Z,6.60
2022-08-24T06:21:28.123Z,7.10
2022-08-24T06:22:27.545Z,6.80
2022-08-24T06:23:27.683Z,7.20
2022-08-24T06:24:27.880Z,7.50
2022-08-24T06:25:28.043Z,7.50
2022-08-24T06:26:28.243Z,6.70
2022-08-24T06:27:28.411Z,6.10
2022-08-24T06:28:28.593Z,5.90
2022-08-24T06:29:28.787Z,6.00
2022-08-24T06:30:30.201Z,5.80
2022-08-24T06:31:29.206Z,5.90
2022-08-24T06:32:30.296Z,6.00
2022-08-24T06:33:29.455Z,7.10
2022-08-24T06:34:29.637Z,7.10
2022-08-24T06:35:29.826Z,7.50
2022-08-24T06:36:30.029Z,6.60
2022-08-24T06:37:30.190Z,6.60
2022-08-24T06:38:30.368Z,7.00
2022-08-24T06:39:30.557Z,6.40
2022-08-24T06:40:30.771Z,6.90
2022-08-24T06:41:30.939Z,6.10
2022-08-24T06:42:31.092Z,6.90
2022-08-24T06:43:31.280Z,7.40
2022-08-24T06:44:31.485Z,7.90
2022-08-24T06:45:31.650Z,7.80
2022-08-24T06:46:32.998Z,7.60
2022-08-24T06:47:32.000Z,7.60
2022-08-24T06:48:32.182Z,8.30
2022-08-24T06:49:32.382Z,8.80
2022-08-24T06:50:32.544Z,6.40
2022-08-24T06:51:32.746Z,6.80
2022-08-24T06:52:32.911Z,6.10
2022-08-24T06:53:33.103Z,7.20
2022-08-24T06:54:33.262Z,6.90
2022-08-24T06:55:33.429Z,8.10
2022-08-24T06:56:33.635Z,7.90
2022-08-24T06:57:33.795Z,8.60
2022-08-24T06:58:34.007Z,9.40
2022-08-24T06:59:34.178Z,9.20
2022-08-24T07:00:34.338Z,8.60
2022-08-24T07:01:34.561Z,8.70
2022-08-24T07:02:34.707Z,9.10
2022-08-24T07:03:34.898Z,9.10
2022-08-24T07:04:35.058Z,9.90
2022-08-24T07:05:35.248Z,9.00
2022-08-24T07:06:35.434Z,9.50
2022-08-24T07:07:35.600Z,8.70
2022-08-24T07:08:35.777Z,8.50
2022-08-24T07:09:35.939Z,7.30
2022-08-24T07:10:36.126Z,7.80
2022-08-24T07:11:36.311Z,8.80
2022-08-24T07:12:36.520Z,9.30
2022-08-24T07:13:36.680Z,8.60
2022-08-24T07:14:36.871Z,9.00
2022-08-24T07:15:37.102Z,9.20
2022-08-24T07:16:37.233Z,9.40
2022-08-24T07:17:37.443Z,8.90
2022-08-24T07:18:37.602Z,8.70
2022-08-24T07:19:37.783Z,9.60
2022-08-24T07:20:37.976Z,9.80
2022-08-24T07:21:38.123Z,8.50
2022-08-24T07:22:38.335Z,8.10
2022-08-24T07:23:41.786Z,8.50
2022-08-24T07:24:38.645Z,8.40
2022-08-24T07:25:38.837Z,9.30
2022-08-24T07:26:39.005Z,9.50
2022-08-24T07:27:39.206Z,10.90
2022-08-24T07:28:39.367Z,10.50
2022-08-24T07:29:56.264Z,9.60
2022-08-24T07:30:40.716Z,8.90
2022-08-24T07:31:39.947Z,10.10
2022-08-24T07:32:40.070Z,9.90
2022-08-24T07:33:40.227Z,11.10
2022-08-24T07:34:40.393Z,11.20
2022-08-24T07:35:40.559Z,12.00
2022-08-24T07:36:44.278Z,11.40
2022-08-24T07:37:41.604Z,11.70
2022-08-24T07:38:41.051Z,11.60
2022-08-24T07:39:41.211Z,11.60
2022-08-24T07:41:05.238Z,11.10
2022-08-24T07:42:02.454Z,11.90
2022-08-24T07:42:42.712Z,11.70
2022-08-24T07:43:43.052Z,12.00
2022-08-24T07:44:42.056Z,11.90
2022-08-24T07:45:42.323Z,11.30
2022-08-24T07:46:42.465Z,11.90
2022-08-24T07:47:53.502Z,11.00
2022-08-24T07:48:43.734Z,11.00
2022-08-24T07:49:42.924Z,11.20
2022-08-24T07:50:43.065Z,11.20
2022-08-24T07:51:47.029Z,11.30
2022-08-24T07:52:43.396Z,10.90
2022-08-24T07:53:53.425Z,10.50
2022-08-24T07:54:44.751Z,10.80
2022-08-24T07:55:46.076Z,11.40
2022-08-24T07:56:44.077Z,11.30
2022-08-24T07:57:44.248Z,11.50
2022-08-24T07:58:44.426Z,10.80
2022-08-24T07:59:44.588Z,11.30
2022-08-24T08:00:44.748Z,10.60
2022-08-24T08:01:44.980Z,11.20
2022-08-24T08:02:45.131Z,10.90
2022-08-24T08:03:45.269Z,10.20
2022-08-24T08:04:45.419Z,11.20
2022-08-24T08:05:45.592Z,11.20
2022-08-24T08:06:45.831Z,11.30
2022-08-24T08:07:48.801Z,10.80
2022-08-24T08:08:46.111Z,10.40
2022-08-24T08:09:46.275Z,10.50
2022-08-24T08:10:46.436Z,10.60
2022-08-24T08:11:46.603Z,11.00
2022-08-24T08:12:46.783Z,10.70
2022-08-24T08:13:46.925Z,10.90
2022-08-24T08:14:47.084Z,11.00
2022-08-24T08:15:47.310Z,11.00
2022-08-24T08:16:47.424Z,11.30
2022-08-24T08:17:47.607Z,11.10
2022-08-24T08:18:56.296Z,11.00
2022-08-24T08:19:48.936Z,11.50
2022-08-24T08:20:48.106Z,11.70
2022-08-24T08:21:48.278Z,11.70
2022-08-24T08:22:48.476Z,10.80
2022-08-24T08:23:48.606Z,11.00
2022-08-24T08:24:48.777Z,11.20
2022-08-24T08:25:48.940Z,11.30
2022-08-24T08:26:49.107Z,10.60
2022-08-24T08:27:49.291Z,10.20
2022-08-24T08:28:49.452Z,10.30
2022-08-24T08:29:49.618Z,10.00
2022-08-24T08:30:49.800Z,10.60
2022-08-24T08:31:49.960Z,9.80
2022-08-24T08:32:50.120Z,10.50
2022-08-24T08:33:50.301Z,10.10
2022-08-24T08:34:50.452Z,10.00
2022-08-24T08:35:50.623Z,9.80
2022-08-24T08:36:50.851Z,9.60
2022-08-24T08:37:51.000Z,9.70
2022-08-24T08:38:51.151Z,9.90
2022-08-24T08:39:51.360Z,10.30
2022-08-24T08:40:51.505Z,10.60
2022-08-24T08:41:51.695Z,10.60
2022-08-24T08:42:51.846Z,10.30
2022-08-24T08:43:52.015Z,9.60
2022-08-24T08:44:52.204Z,10.20
2022-08-24T08:45:52.419Z,10.00
2022-08-24T08:46:52.547Z,10.10
2022-08-24T08:47:52.727Z,10.00
2022-08-24T08:48:52.886Z,9.60
2022-08-24T08:49:53.075Z,9.60
2022-08-24T08:50:53.262Z,9.80
2022-08-24T08:51:53.465Z,9.70
2022-08-24T08:52:53.618Z,9.50
2022-08-24T08:53:53.810Z,9.90
2022-08-24T08:54:54.013Z,9.20
2022-08-24T08:55:54.169Z,10.20
2022-08-24T08:56:59.071Z,10.30
2022-08-24T08:57:55.490Z,9.60
2022-08-24T08:58:57.445Z,10.40
2022-08-24T08:59:54.860Z,8.80
2022-08-24T09:00:55.055Z,9.50
2022-08-24T09:01:55.219Z,9.00
2022-08-24T09:02:55.381Z,9.30
2022-08-24T09:03:55.653Z,9.50
2022-08-24T09:04:55.811Z,9.90
2022-08-24T09:06:56.122Z,9.80
2022-08-24T09:07:56.313Z,9.00
2022-08-24T09:08:56.483Z,9.20
2022-08-24T09:09:56.665Z,8.90
2022-08-24T09:10:56.844Z,9.70
2022-08-24T09:11:57.035Z,9.80
2022-08-24T09:12:57.215Z,9.50
2022-08-24T09:13:57.375Z,8.80
2022-08-24T09:14:57.556Z,9.20
2022-08-24T09:15:57.994Z,8.80
2022-08-24T09:16:57.988Z,9.40
2022-08-24T09:17:58.206Z,9.30
2022-08-24T09:18:58.294Z,8.90
2022-08-24T09:19:58.467Z,8.90
2022-08-24T09:20:58.656Z,9.00
2022-08-24T09:21:58.858Z,8.70
2022-08-24T09:22:59.020Z,8.80
2022-08-24T09:23:59.207Z,8.30
2022-08-24T09:24:59.390Z,9.20
2022-08-24T09:25:59.580Z,8.80
2022-08-24T09:26:59.779Z,9.00
2022-08-24T09:27:59.940Z,8.80
2022-08-24T09:29:00.121Z,8.70
2022-08-24T09:30:00.302Z,8.50
2022-08-24T09:31:00.528Z,8.50
2022-08-24T09:32:00.676Z,8.40
2022-08-24T09:33:00.876Z,8.50
2022-08-24T09:34:01.024Z,8.50
2022-08-24T09:35:01.212Z,8.30
2022-08-24T09:36:01.623Z,8.40
2022-08-24T09:37:01.573Z,8.60
2022-08-24T09:38:01.764Z,8.70
2022-08-24T09:39:01.925Z,8.30
2022-08-24T09:40:02.242Z,8.30
2022-08-24T09:41:02.304Z,8.30
2022-08-24T09:42:02.465Z,8.50
2022-08-24T09:43:02.798Z,8.10
2022-08-24T09:44:03.579Z,7.90
2022-08-24T09:45:03.023Z,8.40
2022-08-24T09:46:03.326Z,7.60
2022-08-24T09:47:03.376Z,8.60
2022-08-24T09:48:03.568Z,8.40
2022-08-24T09:49:03.719Z,8.60
2022-08-24T09:50:03.910Z,9.00
2022-08-24T09:51:04.108Z,8.20
2022-08-24T09:52:04.261Z,8.50
2022-08-24T09:53:04.541Z,8.80
2022-08-24T09:54:04.622Z,8.40
2022-08-24T09:55:04.827Z,8.00
2022-08-24T09:56:04.989Z,8.60
2022-08-24T09:57:12.007Z,8.70
2022-08-24T09:58:06.332Z,8.70
2022-08-24T09:59:05.522Z,8.80
2022-08-24T10:00:05.684Z,8.30
2022-08-24T10:01:05.919Z,8.30
2022-08-24T10:02:06.071Z,9.00
2022-08-24T10:03:06.205Z,8.60
2022-08-24T10:04:06.408Z,8.70
2022-08-24T10:05:06.641Z,8.20
2022-08-24T10:06:06.821Z,8.20
2022-08-24T10:07:06.915Z,8.80
2022-08-24T10:08:07.136Z,9.10
2022-08-24T10:09:07.265Z,8.50
2022-08-24T10:10:07.420Z,8.40
2022-08-24T10:11:07.597Z,8.80
2022-08-24T10:12:07.787Z,8.20
2022-08-24T10:13:07.992Z,8.90
2022-08-24T10:14:08.148Z,8.40
2022-08-24T10:15:08.396Z,8.60
2022-08-24T10:16:08.531Z,8.30
2022-08-24T10:17:08.699Z,8.40
2022-08-24T10:18:08.899Z,8.70
2022-08-24T10:19:09.060Z,8.60
2022-08-24T10:20:09.247Z,8.50
2022-08-24T10:21:09.432Z,8.60
2022-08-24T10:22:09.632Z,8.50
2022-08-24T10:23:09.793Z,8.40
2022-08-24T10:24:09.983Z,8.80
2022-08-24T10:25:10.163Z,7.90
2022-08-24T10:26:10.343Z,8.50
2022-08-24T10:27:10.546Z,8.60
2022-08-24T10:28:10.711Z,8.40
2022-08-24T10:29:10.896Z,8.60
2022-08-24T10:30:11.085Z,8.70
2022-08-24T10:31:13.049Z,8.40
2022-08-24T10:32:11.468Z,8.10
2022-08-24T10:33:11.623Z,8.30
2022-08-24T10:34:11.808Z,8.70
2022-08-24T10:35:11.998Z,8.10
2022-08-24T10:36:12.221Z,8.20
2022-08-24T10:37:12.345Z,8.10
2022-08-24T10:38:12.507Z,8.30
2022-08-24T10:39:12.655Z,8.40
2022-08-24T10:40:12.943Z,8.30
2022-08-24T10:41:13.039Z,8.10
2022-08-24T10:42:13.210Z,7.90
2022-08-24T10:43:13.368Z,8.10
2022-08-24T10:44:13.540Z,7.50
2022-08-24T10:45:13.711Z,7.60
2022-08-24T10:46:13.927Z,8.00
2022-08-24T10:47:14.080Z,7.80
2022-08-24T10:48:14.262Z,8.30
2022-08-24T10:49:14.442Z,8.00
2022-08-24T10:50:14.712Z,7.60
2022-08-24T10:51:14.793Z,7.80
2022-08-24T10:52:14.982Z,7.50
2022-08-24T10:53:15.186Z,7.70
2022-08-24T10:54:15.344Z,7.80
2022-08-24T10:55:15.535Z,7.70
2022-08-24T10:56:15.725Z,7.40
2022-08-24T10:57:15.906Z,7.90
2022-08-24T10:58:16.105Z,8.10
2022-08-24T10:59:16.275Z,7.80
2022-08-24T11:00:22.799Z,7.50
2022-08-24T11:01:17.695Z,8.00
2022-08-24T11:02:16.843Z,7.50
2022-08-24T11:03:17.007Z,7.30
2022-08-24T11:04:17.188Z,7.20
2022-08-24T11:05:17.339Z,7.80
2022-08-24T11:06:17.499Z,7.40
2022-08-24T11:07:17.678Z,8.00
2022-08-24T11:08:17.859Z,7.30
2022-08-24T11:09:19.887Z,7.20
2022-08-24T11:10:18.210Z,7.80
2022-08-24T11:11:18.400Z,8.00
2022-08-24T11:12:18.553Z,7.90
2022-08-24T11:13:18.750Z,7.40
2022-08-24T11:14:18.921Z,7.30
2022-08-24T11:15:19.099Z,7.30
2022-08-24T11:16:19.299Z,7.20
2022-08-24T11:17:19.451Z,7.40
2022-08-24T11:18:19.656Z,7.30
2022-08-24T11:19:19.815Z,7.10
2022-08-24T11:20:20.006Z,7.20
2022-08-24T11:21:20.179Z,7.30
2022-08-24T11:22:20.345Z,7.40
2022-08-24T11:23:21.771Z,7.10
2022-08-24T11:24:20.721Z,7.10
2022-08-24T11:25:20.905Z,7.20
2022-08-24T11:26:21.087Z,6.80
2022-08-24T11:27:21.299Z,7.00
2022-08-24T11:28:21.449Z,6.80
2022-08-24T11:29:21.640Z,7.00
2022-08-24T11:30:21.815Z,7.50
2022-08-24T11:31:22.020Z,6.80
2022-08-24T11:32:22.157Z,6.90
2022-08-24T11:33:22.344Z,6.90
2022-08-24T11:34:22.490Z,6.70
2022-08-24T11:35:22.697Z,6.80
2022-08-24T11:36:22.822Z,6.40
2022-08-24T11:37:24.451Z,6.60
2022-08-24T11:38:23.192Z,6.90
2022-08-24T11:39:23.382Z,6.90
2022-08-24T11:40:23.647Z,6.50
2022-08-24T11:41:23.725Z,6.40
2022-08-24T11:42:27.487Z,6.60
2022-08-24T11:43:25.093Z,6.50
2022-08-24T11:44:24.265Z,6.40
2022-08-24T11:45:24.471Z,6.60
2022-08-24T11:46:24.676Z,6.20
2022-08-24T11:47:24.807Z,6.50
2022-08-24T11:48:29.647Z,6.30
2022-08-24T11:49:25.167Z,6.60
2022-08-24T11:50:25.367Z,6.30
2022-08-24T11:51:25.526Z,6.60
2022-08-24T11:52:25.689Z,5.90
2022-08-24T11:53:25.886Z,6.70
2022-08-24T11:54:26.068Z,6.40
2022-08-24T11:55:26.268Z,6.70
2022-08-24T11:56:26.416Z,6.90
2022-08-24T11:57:26.593Z,5.90
2022-08-24T11:58:26.780Z,6.20
2022-08-24T11:59:26.980Z,6.80
2022-08-24T12:00:27.154Z,6.10
2022-08-24T12:01:27.342Z,6.20
2022-08-24T12:02:27.593Z,5.90
2022-08-24T12:03:27.716Z,6.50
2022-08-24T12:04:27.857Z,6.20
2022-08-24T12:05:28.033Z,6.40
2022-08-24T12:06:32.434Z,5.90
2022-08-24T12:07:28.377Z,6.00
2022-08-24T12:08:28.585Z,6.80
2022-08-24T12:09:28.714Z,6.10
2022-08-24T12:10:32.645Z,5.90
2022-08-24T12:11:29.043Z,6.50
2022-08-24T12:12:29.233Z,6.00
2022-08-24T12:13:29.396Z,6.10
2022-08-24T12:14:29.556Z,5.90
2022-08-24T12:15:29.717Z,6.10
2022-08-24T12:16:29.935Z,5.80
2022-08-24T12:17:30.099Z,6.30
2022-08-24T12:18:30.249Z,6.10
2022-08-24T12:19:30.414Z,6.00
2022-08-24T12:20:30.589Z,5.80
2022-08-24T12:21:30.784Z,5.80
2022-08-24T12:22:30.949Z,5.80
2022-08-24T12:23:31.121Z,5.90
2022-08-24T12:24:31.280Z,5.70
2022-08-24T12:25:31.471Z,5.70
2022-08-24T12:26:31.673Z,6.50
2022-08-24T12:27:31.834Z,5.80
2022-08-24T12:28:31.994Z,6.10
2022-08-24T12:29:32.133Z,6.00
2022-08-24T12:30:32.322Z,6.50
2022-08-24T12:31:32.553Z,6.00
2022-08-24T12:32:32.684Z,6.40
2022-08-24T12:33:32.874Z,6.20
2022-08-24T12:34:33.034Z,6.10
2022-08-24T12:35:33.211Z,6.20
2022-08-24T12:36:33.382Z,6.30
2022-08-24T12:37:33.556Z,6.20
2022-08-24T12:38:33.738Z,6.10
2022-08-24T12:39:33.919Z,6.00
2022-08-24T12:40:34.076Z,5.80
2022-08-24T12:41:34.238Z,6.40
2022-08-24T12:42:34.425Z,6.30
2022-08-24T12:43:34.598Z,6.50
2022-08-24T12:44:34.783Z,6.40
2022-08-24T12:45:34.966Z,6.40
2022-08-24T12:46:35.143Z,5.90
2022-08-24T12:47:35.270Z,6.20
2022-08-24T12:48:35.431Z,6.50
2022-08-24T12:49:35.590Z,5.90
2022-08-24T12:50:35.791Z,6.30
2022-08-24T12:51:35.951Z,6.30
2022-08-24T12:52:36.112Z,5.90
2022-08-24T12:53:36.282Z,6.40
2022-08-24T12:54:36.466Z,6.50
2022-08-24T12:55:36.623Z,6.10
2022-08-24T12:56:36.799Z,6.10
2022-08-24T12:57:36.974Z,6.00
2022-08-24T12:58:40.638Z,6.20
2022-08-24T12:59:38.305Z,6.50
2022-08-24T13:00:37.525Z,6.00
2022-08-24T13:01:37.759Z,6.10
2022-08-24T13:02:37.867Z,5.70
2022-08-24T13:03:39.046Z,5.80
2022-08-24T13:04:38.215Z,6.10
2022-08-24T13:05:38.398Z,5.80
2022-08-24T13:06:38.558Z,6.20
2022-08-24T13:07:38.729Z,6.00
2022-08-24T13:08:38.890Z,5.90
2022-08-24T13:09:39.097Z,6.10
2022-08-24T13:10:39.251Z,6.20
2022-08-24T13:11:39.435Z,6.00
2022-08-24T13:12:39.644Z,6.10
2022-08-24T13:13:39.812Z,6.10
2022-08-24T13:14:39.961Z,5.70
2022-08-24T13:15:40.180Z,5.80
2022-08-24T13:16:40.302Z,5.60
2022-08-24T13:17:40.502Z,5.80
2022-08-24T13:18:40.644Z,5.60